Time;durP1;ratioP1;P1;durP2;ratioP2;P2;SDS_P1;SDS_P2;PMS_P1;PMS_P2;Temp;Humidity;BMP_temperature;BMP_pressure;BME280_temperature;BME280_humidity;BME280_pressure;Samples;Min_cycle;Max_cycle;Signal;HPM_P1;HPM_P2
2023/07/15 00:04:13;;;;;;;2.72;2.08;;;17.50;99.90;;;;;;9976593;29;20283;-82
2023/07/15 00:09:35;;;;;;;2.67;1.88;;;17.50;99.90;;;;;;9927752;29;20229;-82
2023/07/15 00:14:56;;;;;;;4.40;2.70;;;17.50;99.90;;;;;;9917519;29;20197;-82
2023/07/15 00:20:19;;;;;;;2.75;2.20;;;17.40;99.90;;;;;;9937402;29;20283;-82
2023/07/15 00:25:40;;;;;;;4.35;2.60;;;17.40;99.90;;;;;;9947379;29;20204;-82
2023/07/15 00:31:01;;;;;;;4.60;3.05;;;17.40;99.90;;;;;;9970225;29;20527;-82
2023/07/15 00:36:23;;;;;;;4.13;2.65;;;17.40;99.90;;;;;;9953743;29;20209;-82
2023/07/15 00:41:45;;;;;;;3.33;2.10;;;17.30;99.90;;;;;;9919847;30;20209;-82
2023/07/15 00:47:21;;;;;;;3.10;2.20;;;17.30;99.90;;;;;;9932362;30;20228;-82
2023/07/15 00:52:43;;;;;;;3.28;2.05;;;17.30;99.90;;;;;;9926975;29;20209;-82
2023/07/15 00:58:05;;;;;;;1.95;1.73;;;17.20;99.90;;;;;;9944719;29;20197;-81
2023/07/15 01:03:26;;;;;;;2.38;1.85;;;17.20;99.90;;;;;;9944573;29;20204;-80
2023/07/15 01:08:48;;;;;;;2.15;1.80;;;17.20;99.90;;;;;;9945030;29;20311;-81
2023/07/15 01:14:12;;;;;;;1.92;1.58;;;17.10;99.90;;;;;;9921121;29;20287;-82
2023/07/15 01:19:33;;;;;;;2.15;1.48;;;17.10;99.90;;;;;;9944064;29;20208;-83
2023/07/15 01:24:56;;;;;;;2.55;2.03;;;17.10;99.90;;;;;;9954456;29;20226;-82
2023/07/15 01:30:18;;;;;;;2.13;1.83;;;17.10;99.90;;;;;;9943519;29;20232;-82
2023/07/15 01:35:39;;;;;;;2.88;2.22;;;17.10;99.90;;;;;;9920463;29;20362;-82
2023/07/15 01:41:01;;;;;;;2.25;1.85;;;17.10;99.90;;;;;;9943294;29;20223;-82
2023/07/15 01:46:26;;;;;;;2.65;2.20;;;17.10;99.90;;;;;;9957784;29;20217;-82
2023/07/15 01:51:47;;;;;;;6.43;1.95;;;17.00;99.90;;;;;;9966531;29;20464;-82
2023/07/15 01:57:09;;;;;;;3.90;1.88;;;17.00;99.90;;;;;;9932145;29;20473;-82
2023/07/15 02:02:30;;;;;;;2.28;1.65;;;17.00;99.90;;;;;;9956562;29;20231;-81
2023/07/15 02:07:52;;;;;;;2.88;2.15;;;17.00;99.90;;;;;;9948802;29;20515;-82
2023/07/15 02:13:14;;;;;;;2.90;1.73;;;16.90;99.90;;;;;;9929480;30;20208;-83
2023/07/15 02:18:35;;;;;;;2.95;1.80;;;16.90;99.90;;;;;;9929468;30;20198;-80
2023/07/15 02:23:59;;;;;;;3.10;2.00;;;16.90;99.90;;;;;;9932274;29;20441;-82
2023/07/15 02:29:20;;;;;;;2.17;1.50;;;16.80;99.90;;;;;;9957127;29;20397;-79
2023/07/15 02:34:41;;;;;;;2.65;1.85;;;16.80;99.90;;;;;;9937783;29;20199;-80
2023/07/15 02:40:06;;;;;;;3.25;1.60;;;16.70;99.90;;;;;;9958394;29;20510;-80
2023/07/15 02:45:27;;;;;;;3.58;1.83;;;16.70;99.90;;;;;;9952763;29;20216;-82
2023/07/15 02:50:53;;;;;;;4.13;2.08;;;16.70;99.90;;;;;;9952112;29;20239;-82
2023/07/15 02:56:14;;;;;;;2.78;1.95;;;16.70;99.90;;;;;;9942767;29;20474;-82
2023/07/15 03:01:35;;;;;;;3.10;2.20;;;16.70;99.90;;;;;;9940416;29;20255;-82
2023/07/15 03:06:58;;;;;;;3.90;2.05;;;16.70;99.90;;;;;;9938289;29;20235;-82
2023/07/15 03:12:21;;;;;;;3.88;2.30;;;16.70;99.90;;;;;;9964329;29;20288;-83
2023/07/15 03:17:43;;;;;;;4.13;1.98;;;16.70;99.90;;;;;;9954477;29;20207;-82
2023/07/15 03:23:05;;;;;;;3.45;2.00;;;16.70;99.90;;;;;;9948954;29;20269;-82
2023/07/15 03:28:26;;;;;;;4.95;2.38;;;16.80;99.90;;;;;;9914771;29;20576;-82
2023/07/15 03:33:51;;;;;;;3.83;2.25;;;16.80;99.90;;;;;;9948608;29;20207;-82
2023/07/15 03:39:13;;;;;;;4.78;2.22;;;16.70;99.90;;;;;;9938232;29;20291;-82
2023/07/15 03:44:35;;;;;;;5.28;2.50;;;16.80;99.90;;;;;;9914456;30;20234;-82
2023/07/15 03:49:56;;;;;;;5.07;2.53;;;16.80;99.90;;;;;;9931574;29;20232;-82
2023/07/15 03:55:18;;;;;;;4.00;2.13;;;16.80;99.90;;;;;;9955569;29;20250;-83
2023/07/15 04:00:39;;;;;;;4.20;2.20;;;16.90;99.90;;;;;;9958577;29;20212;-82
2023/07/15 04:06:00;;;;;;;4.00;2.50;;;16.90;99.90;;;;;;9965456;29;20212;-82
2023/07/15 04:11:22;;;;;;;4.20;2.20;;;17.00;99.90;;;;;;9921161;30;20235;-82
2023/07/15 04:16:44;;;;;;;5.55;2.92;;;17.10;99.90;;;;;;9946356;29;20496;-82
2023/07/15 04:22:05;;;;;;;6.25;3.30;;;17.10;99.90;;;;;;9923453;29;20244;-82
2023/07/15 04:27:26;;;;;;;4.43;3.65;;;17.10;99.90;;;;;;9965435;29;20239;-81
2023/07/15 04:32:48;;;;;;;6.85;3.90;;;17.10;99.90;;;;;;9944910;29;20520;-82
2023/07/15 04:38:10;;;;;;;8.43;6.25;;;17.10;99.90;;;;;;9943606;29;20303;-82
2023/07/15 04:43:32;;;;;;;9.77;7.03;;;17.20;99.90;;;;;;9919629;30;20243;-82
2023/07/15 04:48:53;;;;;;;6.65;4.50;;;17.40;99.90;;;;;;9932161;30;20570;-82
2023/07/15 04:54:14;;;;;;;9.95;3.78;;;17.50;99.90;;;;;;9940935;29;20247;-82
2023/07/15 04:59:36;;;;;;;3.70;2.92;;;17.60;99.90;;;;;;9968170;29;20208;-82
2023/07/15 05:04:57;;;;;;;4.07;3.30;;;17.60;99.90;;;;;;9967083;29;20296;-82
2023/07/15 05:10:19;;;;;;;8.25;3.80;;;17.70;99.90;;;;;;9968937;29;20232;-82
2023/07/15 05:15:40;;;;;;;4.78;2.72;;;17.70;99.90;;;;;;9968740;29;20258;-82
2023/07/15 05:21:02;;;;;;;6.38;2.90;;;17.90;99.90;;;;;;9957111;29;20213;-82
2023/07/15 05:26:23;;;;;;;4.57;2.80;;;18.10;99.90;;;;;;9929828;29;20249;-82
2023/07/15 05:31:45;;;;;;;4.63;2.58;;;18.30;99.90;;;;;;9967781;29;20248;-82
2023/07/15 05:37:07;;;;;;;5.00;2.55;;;18.30;99.90;;;;;;9958950;29;20251;-82
2023/07/15 05:42:28;;;;;;;9.05;3.15;;;18.60;99.90;;;;;;9917534;30;20211;-82
2023/07/15 05:47:49;;;;;;;6.32;3.05;;;19.00;99.90;;;;;;9942801;29;20201;-82
2023/07/15 05:53:11;;;;;;;4.60;2.60;;;19.30;99.90;;;;;;9933068;29;20260;-82
2023/07/15 05:58:32;;;;;;;3.97;2.35;;;19.40;98.90;;;;;;9930140;30;20197;-82
2023/07/15 06:03:54;;;;;;;5.53;2.53;;;19.60;89.70;;;;;;9904002;29;20228;-83
2023/07/15 06:09:16;;;;;;;7.32;2.45;;;19.90;46.20;;;;;;9929498;30;20227;-82
2023/07/15 06:14:37;;;;;;;3.05;2.15;;;20.20;1.00;;;;;;9928910;29;20247;-82
2023/07/15 06:19:58;;;;;;;6.68;2.30;;;20.50;1.00;;;;;;9931595;29;20213;-82
2023/07/15 06:25:20;;;;;;;3.35;2.22;;;20.70;1.00;;;;;;9945286;29;20576;-83
2023/07/15 06:30:41;;;;;;;2.88;2.13;;;21.00;1.00;;;;;;9966003;29;20232;-83
2023/07/15 06:36:04;;;;;;;6.10;2.95;;;21.30;1.00;;;;;;9931517;29;20295;-83
2023/07/15 06:41:25;;;;;;;4.00;2.10;;;21.70;1.00;;;;;;9903512;30;20205;-82
2023/07/15 06:46:46;;;;;;;3.75;2.15;;;22.00;1.00;;;;;;9917913;29;20201;-83
2023/07/15 06:52:08;;;;;;;4.30;2.30;;;22.30;1.00;;;;;;9915251;30;20260;-83
2023/07/15 06:57:29;;;;;;;9.63;2.28;;;22.30;99.90;;;;;;9928093;29;20219;-83
2023/07/15 07:02:51;;;;;;;4.22;2.67;;;22.40;99.90;;;;;;9931051;29;20212;-82
2023/07/15 07:08:12;;;;;;;3.85;2.17;;;22.60;99.90;;;;;;9927714;30;20211;-83
2023/07/15 07:13:33;;;;;;;6.47;2.10;;;23.00;99.90;;;;;;9927751;30;20225;-83
2023/07/15 07:18:54;;;;;;;5.28;2.30;;;23.90;99.90;;;;;;9941258;29;20277;-83
2023/07/15 07:24:16;;;;;;;6.63;2.40;;;24.10;99.90;;;;;;9934632;29;20254;-82
2023/07/15 07:29:37;;;;;;;5.05;2.10;;;25.00;99.90;;;;;;9964037;29;20228;-82
2023/07/15 07:34:58;;;;;;;3.35;1.83;;;25.50;99.90;;;;;;9936605;29;20213;-82
2023/07/15 07:40:20;;;;;;;7.00;2.30;;;25.70;99.90;;;;;;9901977;30;20209;-83
2023/07/15 07:45:41;;;;;;;5.15;2.20;;;26.10;99.90;;;;;;9916515;30;20197;-81
2023/07/15 07:51:02;;;;;;;3.92;2.13;;;26.60;99.90;;;;;;9906478;29;20240;-81
2023/07/15 07:56:24;;;;;;;5.43;2.60;;;26.80;99.90;;;;;;9926841;30;20612;-81
2023/07/15 08:01:45;;;;;;;3.60;2.05;;;27.40;99.90;;;;;;9926722;30;20304;-82
2023/07/15 08:07:08;;;;;;;7.75;2.45;;;28.30;99.90;;;;;;9922550;29;20245;-82
2023/07/15 08:12:29;;;;;;;7.07;2.33;;;28.30;99.90;;;;;;9933209;29;20262;-81
2023/07/15 08:17:50;;;;;;;3.10;1.98;;;28.10;99.90;;;;;;9951505;29;20200;-81
2023/07/15 08:23:12;;;;;;;4.00;2.35;;;28.30;99.90;;;;;;9948039;29;20235;-81
2023/07/15 08:28:33;;;;;;;4.22;2.45;;;28.90;99.90;;;;;;9973285;29;20230;-82
2023/07/15 08:33:55;;;;;;;3.70;1.85;;;29.40;99.90;;;;;;9964926;29;20204;-81
2023/07/15 08:39:16;;;;;;;2.00;1.80;;;29.40;99.90;;;;;;9976764;29;20392;-81
2023/07/15 08:44:37;;;;;;;5.00;2.35;;;29.60;99.90;;;;;;9985350;29;20440;-81
2023/07/15 08:50:03;;;;;;;4.28;2.00;;;29.90;99.90;;;;;;9984708;29;20236;-82
2023/07/15 08:55:24;;;;;;;2.28;1.80;;;30.00;99.90;;;;;;9980715;29;20282;-81
2023/07/15 09:00:46;;;;;;;2.10;1.63;;;30.20;99.90;;;;;;9958676;29;20243;-81
2023/07/15 09:06:08;;;;;;;2.40;1.85;;;30.70;99.90;;;;;;9968088;29;20231;-81
2023/07/15 09:11:40;;;;;;;3.30;1.92;;;30.30;99.90;;;;;;9944405;29;20237;-82
2023/07/15 09:17:01;;;;;;;3.78;2.10;;;30.30;99.90;;;;;;9920882;29;20217;-82
2023/07/15 09:22:26;;;;;;;2.88;1.70;;;30.40;99.90;;;;;;9944847;29;20403;-82
2023/07/15 09:27:48;;;;;;;6.22;2.35;;;;;;;;;;9967771;29;20209;-82
2023/07/15 09:33:44;;;;;;;3.65;2.00;;;31.10;99.90;;;;;;9969048;29;20237;-82
2023/07/15 09:39:12;;;;;;;3.00;2.00;;;31.20;1.00;;;;;;9945177;29;20231;-82
2023/07/15 09:44:39;;;;;;;3.20;2.00;;;31.10;99.90;;;;;;9929921;30;20304;-82
2023/07/15 09:50:00;;;;;;;4.68;2.38;;;31.00;99.90;;;;;;9929393;30;20241;-82
2023/07/15 09:55:23;;;;;;;2.40;2.08;;;31.80;99.90;;;;;;9922683;29;20337;-83
2023/07/15 10:00:50;;;;;;;4.25;2.25;;;32.40;99.90;;;;;;9946255;29;20230;-82
2023/07/15 10:06:11;;;;;;;2.75;2.15;;;32.30;99.90;;;;;;9967989;29;20227;-82
2023/07/15 10:11:35;;;;;;;7.53;2.38;;;32.50;99.90;;;;;;9940443;29;20278;-82
2023/07/15 10:17:17;;;;;;;4.95;2.13;;;32.60;99.90;;;;;;9918972;29;20284;-82
2023/07/15 10:22:40;;;;;;;5.15;2.47;;;32.80;99.90;;;;;;9916445;30;20368;-83
2023/07/15 10:28:12;;;;;;;5.57;2.30;;;32.80;99.90;;;;;;9950722;29;20213;-83
2023/07/15 10:33:35;;;;;;;3.60;2.03;;;32.80;99.90;;;;;;9966298;29;20335;-83
2023/07/15 10:39:16;;;;;;;3.17;2.08;;;32.60;99.90;;;;;;9966924;29;20223;-83
2023/07/15 10:44:46;;;;;;;3.70;2.30;;;32.90;99.90;;;;;;9933739;29;20204;-83
2023/07/15 10:50:07;;;;;;;3.25;2.00;;;32.40;99.90;;;;;;9978342;29;20305;-82
2023/07/15 10:55:28;;;;;;;3.47;2.30;;;32.70;99.90;;;;;;9965107;29;20228;-83
2023/07/15 11:00:50;;;;;;;3.45;2.10;;;33.10;99.90;;;;;;9924122;29;20319;-84
2023/07/15 11:06:12;;;;;;;4.68;2.13;;;33.00;99.90;;;;;;9928162;29;20507;-83
2023/07/15 11:11:33;;;;;;;5.68;2.42;;;33.10;99.90;;;;;;9927343;29;20256;-83
2023/07/15 11:16:57;;;;;;;4.05;2.45;;;33.20;99.90;;;;;;9932869;29;20525;-83
2023/07/15 11:22:18;;;;;;;4.65;2.30;;;33.00;99.90;;;;;;9914506;30;20292;-83
2023/07/15 11:27:39;;;;;;;5.75;3.20;;;33.20;99.90;;;;;;9951011;29;20283;-82
2023/07/15 11:33:02;;;;;;;6.97;2.90;;;33.20;99.90;;;;;;9959076;29;20416;-82
2023/07/15 11:38:33;;;;;;;8.00;2.67;;;33.60;99.90;;;;;;9927067;30;20523;-83
2023/07/15 11:43:57;;;;;;;6.90;2.83;;;33.50;99.90;;;;;;9901764;30;20304;-83
2023/07/15 11:49:22;;;;;;;4.88;2.92;;;33.60;99.90;;;;;;9932047;29;20266;-83
2023/07/15 11:54:45;;;;;;;6.57;2.95;;;33.80;99.90;;;;;;9943765;29;20241;-82
2023/07/15 12:00:09;;;;;;;20.08;3.35;;;33.50;99.90;;;;;;9940783;29;20225;-83
2023/07/15 12:05:31;;;;;;;3.03;2.28;;;33.70;99.90;;;;;;9981171;29;20283;-83
2023/07/15 12:10:57;;;;;;;3.42;2.88;;;33.90;99.90;;;;;;9954473;29;20238;-83
2023/07/15 12:16:20;;;;;;;4.78;2.50;;;33.90;99.90;;;;;;9974038;29;20216;-82
2023/07/15 12:21:41;;;;;;;6.03;2.90;;;33.50;99.90;;;;;;9920815;30;20244;-82
2023/07/15 12:27:03;;;;;;;4.60;2.45;;;33.50;99.90;;;;;;9952616;29;20525;-83
2023/07/15 12:32:25;;;;;;;8.27;2.25;;;33.20;99.90;;;;;;9934879;29;20519;-83
2023/07/15 12:37:47;;;;;;;3.90;2.55;;;33.10;99.90;;;;;;9982776;29;20225;-81
2023/07/15 12:43:08;;;;;;;2.78;2.30;;;33.30;99.90;;;;;;9957153;29;20283;-81
2023/07/15 12:48:30;;;;;;;4.43;2.60;;;33.10;99.90;;;;;;9957531;29;20215;-81
2023/07/15 12:53:52;;;;;;;5.78;3.55;;;33.20;99.90;;;;;;9982142;29;20252;-81
2023/07/15 12:59:13;;;;;;;2.97;2.00;;;33.00;99.90;;;;;;9982301;29;20205;-81
2023/07/15 13:04:34;;;;;;;3.45;2.58;;;33.20;99.90;;;;;;9965733;29;20499;-81
2023/07/15 13:09:56;;;;;;;10.30;2.80;;;33.60;99.90;;;;;;9968813;29;20232;-81
2023/07/15 13:15:17;;;;;;;2.92;2.38;;;33.70;99.90;;;;;;9976536;29;20247;-82
2023/07/15 13:20:39;;;;;;;4.93;2.53;;;33.60;99.90;;;;;;9917758;29;20436;-81
2023/07/15 13:26:01;;;;;;;7.47;4.85;;;33.50;99.90;;;;;;9934902;29;20402;-81
2023/07/15 13:31:22;;;;;;;5.53;2.80;;;33.50;99.90;;;;;;9939841;29;20231;-82
2023/07/15 13:36:45;;;;;;;2.53;2.17;;;33.40;99.90;;;;;;9957869;29;20239;-81
2023/07/15 13:42:09;;;;;;;3.67;2.40;;;33.40;99.90;;;;;;9967916;29;20208;-81
2023/07/15 13:47:30;;;;;;;4.07;2.63;;;33.50;99.90;;;;;;9942455;29;20209;-81
2023/07/15 13:52:52;;;;;;;4.80;2.85;;;33.40;99.90;;;;;;9930306;30;20245;-81
2023/07/15 13:58:13;;;;;;;4.03;2.90;;;33.60;99.90;;;;;;9931050;29;20203;-81
2023/07/15 14:03:34;;;;;;;5.95;2.78;;;33.40;99.90;;;;;;9929453;29;20213;-81
2023/07/15 14:08:56;;;;;;;14.07;2.97;;;33.30;99.90;;;;;;9916977;30;20205;-81
2023/07/15 14:14:17;;;;;;;5.45;2.33;;;33.00;99.90;;;;;;9932118;29;20209;-81
2023/07/15 14:19:39;;;;;;;9.82;2.75;;;32.90;99.90;;;;;;9903956;30;20288;-81
2023/07/15 14:25:00;;;;;;;5.05;2.85;;;32.80;99.90;;;;;;9933169;29;20262;-81
2023/07/15 14:30:21;;;;;;;3.17;2.33;;;32.50;99.90;;;;;;9950828;29;20248;-81
2023/07/15 14:35:43;;;;;;;3.40;2.42;;;32.50;99.90;;;;;;9965661;29;20223;-81
2023/07/15 14:41:04;;;;;;;3.72;2.47;;;32.30;99.90;;;;;;9953116;29;20212;-81
2023/07/15 14:46:26;;;;;;;2.58;2.38;;;32.20;99.90;;;;;;9951648;29;20219;-81
2023/07/15 14:51:47;;;;;;;3.33;2.45;;;32.20;99.90;;;;;;9978616;29;20231;-81
2023/07/15 14:57:08;;;;;;;4.47;2.53;;;32.10;99.90;;;;;;9977890;29;20248;-81
2023/07/15 15:02:30;;;;;;;2.90;2.30;;;31.90;99.90;;;;;;9930659;29;20217;-81
2023/07/15 15:07:51;;;;;;;4.47;3.15;;;31.80;99.90;;;;;;9936028;29;20503;-81
2023/07/15 15:13:12;;;;;;;4.93;2.40;;;31.80;99.90;;;;;;9929835;29;20236;-82
2023/07/15 15:18:34;;;;;;;2.55;2.30;;;31.70;99.90;;;;;;9917814;29;20212;-82
2023/07/15 15:23:55;;;;;;;3.20;2.45;;;31.60;99.90;;;;;;9940090;29;20208;-82
2023/07/15 15:29:17;;;;;;;2.72;2.30;;;31.50;99.90;;;;;;9953538;29;20216;-81
2023/07/15 15:34:38;;;;;;;9.02;2.25;;;31.50;99.90;;;;;;9937691;29;20205;-82
2023/07/15 15:39:59;;;;;;;6.38;3.10;;;31.40;99.90;;;;;;9969064;29;20487;-82
2023/07/15 15:45:22;;;;;;;10.02;2.80;;;31.40;99.90;;;;;;9929878;29;20280;-82
2023/07/15 15:50:43;;;;;;;2.85;2.10;;;31.30;99.90;;;;;;9940570;29;20236;-81
2023/07/15 15:56:05;;;;;;;3.67;2.42;;;31.20;99.90;;;;;;9934077;30;20473;-81
2023/07/15 16:01:27;;;;;;;3.88;2.13;;;31.00;99.90;;;;;;9933673;30;20216;-82
2023/07/15 16:06:48;;;;;;;5.28;2.60;;;30.80;99.90;;;;;;9940624;29;20489;-82
2023/07/15 16:12:09;;;;;;;3.65;2.25;;;30.70;99.90;;;;;;9960212;29;20251;-81
2023/07/15 16:17:30;;;;;;;2.45;2.25;;;30.70;99.90;;;;;;9933577;30;20212;-81
2023/07/15 16:22:52;;;;;;;2.25;2.05;;;30.60;99.90;;;;;;9933356;30;20254;-82
2023/07/15 16:28:13;;;;;;;3.90;2.13;;;30.50;99.90;;;;;;9958550;29;20395;-82
2023/07/15 16:33:34;;;;;;;2.83;2.55;;;30.50;99.90;;;;;;9957601;29;20228;-82
2023/07/15 16:38:55;;;;;;;4.53;2.35;;;30.40;99.90;;;;;;9957525;29;20262;-82
2023/07/15 16:44:16;;;;;;;3.25;2.42;;;30.30;99.90;;;;;;9954057;29;20208;-81
2023/07/15 16:49:40;;;;;;;4.38;3.25;;;30.20;99.90;;;;;;9964092;29;20207;-81
2023/07/15 16:55:02;;;;;;;4.55;2.95;;;30.20;99.90;;;;;;9921815;29;20255;-82
2023/07/15 17:00:23;;;;;;;5.00;2.47;;;30.20;99.90;;;;;;9952360;29;20208;-81
2023/07/15 17:05:45;;;;;;;2.95;2.53;;;30.30;99.90;;;;;;9982273;29;20253;-82
2023/07/15 17:11:07;;;;;;;9.20;3.40;;;30.40;99.90;;;;;;9951088;29;20273;-82
2023/07/15 17:16:28;;;;;;;5.10;2.97;;;30.30;99.90;;;;;;9929753;29;20418;-81
2023/07/15 17:21:49;;;;;;;4.57;2.70;;;30.20;99.90;;;;;;9981600;29;20227;-82
2023/07/15 17:27:11;;;;;;;4.65;3.20;;;30.00;99.90;;;;;;9956452;29;20519;-82
2023/07/15 17:32:32;;;;;;;7.45;3.58;;;29.80;99.90;;;;;;9966454;29;20274;-81
2023/07/15 17:37:54;;;;;;;4.28;3.40;;;29.80;99.90;;;;;;9955229;29;20227;-82
2023/07/15 17:43:15;;;;;;;4.18;3.10;;;29.60;99.90;;;;;;9941220;29;20215;-81
2023/07/15 17:48:37;;;;;;;4.93;3.03;;;29.30;99.90;;;;;;9957943;29;20232;-81
2023/07/15 17:53:59;;;;;;;5.78;3.53;;;29.10;99.90;;;;;;9932001;29;20251;-82
2023/07/15 17:59:20;;;;;;;7.53;3.92;;;29.00;99.90;;;;;;9963289;29;20296;-82
2023/07/15 18:04:48;;;;;;;4.30;3.17;;;28.80;99.90;;;;;;9929774;30;20205;-82
2023/07/15 18:10:12;;;;;;;4.32;3.67;;;28.70;99.90;;;;;;9945332;29;20232;-84
2023/07/15 18:15:33;;;;;;;8.40;4.20;;;28.60;99.90;;;;;;9934218;29;20503;-82
2023/07/15 18:20:55;;;;;;;6.10;3.90;;;28.40;99.90;;;;;;9944438;29;20216;-82
2023/07/15 18:26:16;;;;;;;10.15;3.35;;;28.30;99.90;;;;;;9959283;29;20229;-81
2023/07/15 18:31:37;;;;;;;5.18;3.45;;;28.10;99.90;;;;;;9950275;29;20240;-81
2023/07/15 18:36:59;;;;;;;4.47;3.17;;;28.00;99.90;;;;;;9966980;29;20330;-82
2023/07/15 18:42:22;;;;;;;4.05;3.33;;;27.80;99.90;;;;;;9958769;29;20217;-82
2023/07/15 18:47:43;;;;;;;6.43;3.65;;;27.80;99.90;;;;;;9916016;30;20439;-82
2023/07/15 18:53:04;;;;;;;5.43;3.13;;;27.60;99.90;;;;;;9956585;29;20645;-81
2023/07/15 18:58:25;;;;;;;3.75;2.90;;;27.50;99.90;;;;;;9942052;29;20399;-81
2023/07/15 19:03:47;;;;;;;7.65;4.13;;;27.30;99.90;;;;;;9927948;29;20209;-81
2023/07/15 19:09:08;;;;;;;3.83;3.42;;;27.20;99.90;;;;;;9927381;30;20442;-81
2023/07/15 19:14:29;;;;;;;4.32;3.28;;;26.90;99.90;;;;;;9932779;29;20312;-82
2023/07/15 19:19:51;;;;;;;4.28;3.58;;;26.80;99.90;;;;;;9926889;30;20276;-82
2023/07/15 19:25:12;;;;;;;4.90;3.60;;;26.70;99.90;;;;;;9933409;29;20204;-81
2023/07/15 19:30:34;;;;;;;6.70;3.67;;;26.50;99.90;;;;;;9950312;29;20311;-82
2023/07/15 19:35:55;;;;;;;5.45;3.90;;;26.30;99.90;;;;;;9928077;30;20674;-81
2023/07/15 19:41:16;;;;;;;12.73;7.53;;;26.10;99.90;;;;;;9914417;30;20587;-82
2023/07/15 19:46:37;;;;;;;11.15;7.97;;;25.90;99.90;;;;;;9936942;29;20435;-81
2023/07/15 19:51:58;;;;;;;6.35;4.68;;;25.80;99.90;;;;;;9933036;29;20228;-81
2023/07/15 19:57:20;;;;;;;7.43;4.20;;;25.60;99.90;;;;;;9913831;29;20315;-81
2023/07/15 20:02:42;;;;;;;8.50;4.75;;;25.40;99.90;;;;;;9930254;29;20312;-81
2023/07/15 20:08:03;;;;;;;5.00;3.80;;;25.30;99.90;;;;;;9928846;29;20262;-81
2023/07/15 20:13:24;;;;;;;6.30;3.65;;;25.30;1.00;;;;;;9931600;29;20229;-81
2023/07/15 20:18:46;;;;;;;5.90;3.97;;;;;;;;;;9928604;29;20388;-81
2023/07/15 20:24:08;;;;;;;5.18;4.18;;;;;;;;;;9913768;30;20258;-82
2023/07/15 20:29:29;;;;;;;3.95;3.55;;;25.00;99.90;;;;;;9971042;29;20196;-81
2023/07/15 20:34:50;;;;;;;9.23;3.92;;;24.90;99.90;;;;;;9945631;29;20229;-81
2023/07/15 20:40:12;;;;;;;5.55;3.95;;;24.90;99.90;;;;;;9933004;30;20451;-82
2023/07/15 20:45:33;;;;;;;5.63;3.47;;;24.80;99.90;;;;;;9943180;29;20216;-81
2023/07/15 20:50:54;;;;;;;6.50;4.00;;;24.80;99.90;;;;;;9957362;29;20514;-81
2023/07/15 20:56:15;;;;;;;7.53;3.83;;;24.70;99.90;;;;;;9931640;30;20245;-82
2023/07/15 21:01:37;;;;;;;5.72;3.83;;;24.70;99.90;;;;;;9941463;29;20208;-81
2023/07/15 21:06:58;;;;;;;5.43;3.88;;;24.60;99.90;;;;;;9956487;29;20213;-81
2023/07/15 21:12:19;;;;;;;5.88;4.10;;;24.60;99.90;;;;;;9981764;29;20421;-82
2023/07/15 21:17:41;;;;;;;8.25;4.18;;;24.50;99.90;;;;;;9942066;29;20231;-81
2023/07/15 21:23:02;;;;;;;6.82;3.88;;;24.40;99.90;;;;;;9931454;29;20280;-81
2023/07/15 21:28:34;;;;;;;5.50;4.05;;;24.40;99.90;;;;;;9960546;29;20209;-81
2023/07/15 21:33:59;;;;;;;6.82;4.72;;;24.30;99.90;;;;;;9942355;29;20229;-82
2023/07/15 21:39:20;;;;;;;4.38;3.85;;;24.30;99.90;;;;;;9930814;30;20201;-81
2023/07/15 21:44:41;;;;;;;5.20;3.92;;;24.20;99.90;;;;;;9932397;29;20293;-82
2023/07/15 21:50:03;;;;;;;4.57;3.42;;;24.20;99.90;;;;;;9937180;29;20208;-81
2023/07/15 21:55:25;;;;;;;9.52;4.60;;;24.10;99.90;;;;;;9954581;29;20323;-82
2023/07/15 22:00:46;;;;;;;7.05;4.13;;;24.00;99.90;;;;;;9949021;29;20246;-82
2023/07/15 22:06:08;;;;;;;5.15;3.92;;;24.00;99.90;;;;;;9917181;30;20224;-82
2023/07/15 22:11:29;;;;;;;10.32;3.88;;;24.00;99.90;;;;;;9916902;29;20234;-82
2023/07/15 22:16:50;;;;;;;5.97;4.07;;;23.80;99.90;;;;;;9929184;30;20254;-82
2023/07/15 22:22:12;;;;;;;7.50;4.28;;;23.80;99.90;;;;;;9932229;29;20217;-82
2023/07/15 22:27:33;;;;;;;4.25;3.50;;;23.80;99.90;;;;;;9933313;29;20212;-82
2023/07/15 22:32:55;;;;;;;5.35;3.63;;;23.80;99.90;;;;;;9940000;29;20231;-81
2023/07/15 22:38:16;;;;;;;6.75;4.15;;;23.70;99.90;;;;;;9916375;30;20197;-82
2023/07/15 22:43:37;;;;;;;6.72;4.20;;;23.60;99.90;;;;;;9928174;29;20217;-81
2023/07/15 22:48:59;;;;;;;5.65;4.15;;;23.50;99.90;;;;;;9933537;29;20434;-82
2023/07/15 22:54:20;;;;;;;9.27;4.00;;;23.50;99.90;;;;;;9928152;29;20249;-82
2023/07/15 22:59:41;;;;;;;4.45;3.80;;;23.60;1.00;;;;;;9940238;29;20205;-82
2023/07/15 23:05:02;;;;;;;3.92;3.33;;;23.50;1.00;;;;;;9930913;29;20535;-82
2023/07/15 23:10:24;;;;;;;5.45;4.03;;;23.50;1.00;;;;;;9928111;29;20254;-82
2023/07/15 23:15:45;;;;;;;4.20;3.50;;;23.50;1.00;;;;;;9927489;30;20216;-82
2023/07/15 23:21:06;;;;;;;4.57;3.80;;;23.40;1.00;;;;;;9948315;29;20441;-82
2023/07/15 23:26:28;;;;;;;5.95;3.75;;;23.40;12.60;;;;;;9977302;29;20300;-81
2023/07/15 23:31:49;;;;;;;5.82;3.97;;;23.10;99.90;;;;;;9951118;29;20242;-82
2023/07/15 23:37:11;;;;;;;4.03;3.63;;;23.00;99.90;;;;;;9926877;29;20251;-83
2023/07/15 23:42:32;;;;;;;6.55;3.80;;;22.90;99.90;;;;;;9927885;29;20216;-83
2023/07/15 23:47:53;;;;;;;5.10;3.90;;;22.80;99.90;;;;;;9940547;29;20218;-81
2023/07/15 23:53:14;;;;;;;4.97;3.75;;;22.80;99.90;;;;;;9946549;29;20491;-81
2023/07/15 23:58:36;;;;;;;4.82;3.65;;;22.70;99.90;;;;;;9926787;29;20276;-81
